createdAt,value
2019-02-08T00:00:54.786Z,87.11
2019-02-08T00:03:22.764Z,87.33
2019-02-08T00:05:50.582Z,86.38
2019-02-08T00:08:18.907Z,86.97
2019-02-08T00:10:46.947Z,87.07
2019-02-08T00:13:14.428Z,87.13
2019-02-08T00:15:42.517Z,86.51
2019-02-08T00:18:10.924Z,87.14
2019-02-08T00:20:38.468Z,86.49
2019-02-08T00:23:06.332Z,87.00
2019-02-08T00:25:34.184Z,86.92
2019-02-08T00:28:01.885Z,87.08
2019-02-08T00:30:29.880Z,87.02
2019-02-08T00:32:57.436Z,87.33
2019-02-08T00:35:26.015Z,86.97
2019-02-08T00:37:53.864Z,87.35
2019-02-08T00:40:22.171Z,87.01
2019-02-08T00:42:49.626Z,86.67
2019-02-08T00:45:17.431Z,86.94
2019-02-08T00:47:45.332Z,86.98
2019-02-08T00:50:16.633Z,86.88
2019-02-08T00:52:43.955Z,87.04
2019-02-08T00:55:12.259Z,87.08
2019-02-08T00:57:39.982Z,86.71
2019-02-08T01:00:10.047Z,86.62
2019-02-08T01:02:39.092Z,87.05
2019-02-08T01:05:09.233Z,86.42
2019-02-08T01:07:37.299Z,86.59
2019-02-08T01:10:08.830Z,87.03
2019-02-08T01:12:36.587Z,87.45
2019-02-08T01:15:06.064Z,86.88
2019-02-08T01:17:33.616Z,86.86
2019-02-08T01:20:01.410Z,87.33
2019-02-08T01:22:28.925Z,87.30
2019-02-08T01:24:56.666Z,86.86
2019-02-08T01:27:24.334Z,87.16
2019-02-08T01:29:51.542Z,87.05
2019-02-08T01:32:19.264Z,86.73
2019-02-08T01:34:46.716Z,86.72
2019-02-08T01:37:14.049Z,86.95
2019-02-08T01:39:41.555Z,87.27
2019-02-08T01:42:09.246Z,87.07
2019-02-08T01:44:37.023Z,86.72
2019-02-08T01:47:04.514Z,86.79
2019-02-08T01:49:32.018Z,87.11
2019-02-08T01:51:59.956Z,86.94
2019-02-08T01:54:28.129Z,87.27
2019-02-08T01:56:55.722Z,87.10
2019-02-08T01:59:23.584Z,87.48
2019-02-08T02:01:51.927Z,87.18
2019-02-08T02:04:20.014Z,87.13
2019-02-08T02:06:47.871Z,86.95
2019-02-08T02:09:15.903Z,86.68
2019-02-08T02:11:43.990Z,86.48
2019-02-08T02:14:11.701Z,86.68
2019-02-08T02:16:39.502Z,86.87
2019-02-08T02:19:07.239Z,87.00
2019-02-08T02:21:34.763Z,86.12
2019-02-08T02:24:02.675Z,86.41
2019-02-08T02:26:30.565Z,86.17
2019-02-08T02:28:58.324Z,86.28
2019-02-08T02:31:26.167Z,86.22
2019-02-08T02:33:53.570Z,86.48
2019-02-08T02:36:21.441Z,86.27
2019-02-08T02:38:48.955Z,86.20
2019-02-08T02:41:16.803Z,85.97
2019-02-08T02:43:44.208Z,85.86
2019-02-08T02:46:12.462Z,86.17
2019-02-08T02:48:40.447Z,86.71
2019-02-08T02:51:07.779Z,86.31
2019-02-08T02:53:35.413Z,86.35
2019-02-08T02:56:03.517Z,86.16
2019-02-08T02:58:31.011Z,86.09
2019-02-08T03:00:58.463Z,85.63
2019-02-08T03:03:25.870Z,85.91
2019-02-08T03:05:53.213Z,85.69
2019-02-08T03:08:20.708Z,85.62
2019-02-08T03:10:48.187Z,85.43
2019-02-08T03:13:16.051Z,85.38
2019-02-08T03:15:43.698Z,85.32
2019-02-08T03:18:11.520Z,85.35
2019-02-08T03:20:39.320Z,85.46
2019-02-08T03:23:07.111Z,85.39
2019-02-08T03:25:34.621Z,85.35
2019-02-08T03:28:02.597Z,85.27
2019-02-08T03:30:42.375Z,85.11
2019-02-08T03:33:10.297Z,85.27
2019-02-08T03:35:38.080Z,85.27
2019-02-08T03:38:06.651Z,84.99
2019-02-08T03:40:33.979Z,85.14
2019-02-08T03:43:01.460Z,84.95
2019-02-08T03:45:33.433Z,84.78
2019-02-08T03:48:01.195Z,84.81
2019-02-08T03:50:28.807Z,84.32
2019-02-08T03:52:56.370Z,84.45
2019-02-08T03:55:24.124Z,84.27
2019-02-08T03:57:52.151Z,84.61
2019-02-08T04:00:30.771Z,84.33
2019-02-08T04:02:58.759Z,84.44
2019-02-08T04:05:26.944Z,84.56
2019-02-08T04:07:55.459Z,84.76
2019-02-08T04:10:23.304Z,84.50
2019-02-08T04:12:51.143Z,84.48
2019-02-08T04:15:18.963Z,84.38
2019-02-08T04:17:46.979Z,84.33
2019-02-08T04:20:16.178Z,84.24
2019-02-08T04:22:44.554Z,84.20
2019-02-08T04:25:13.341Z,84.15
2019-02-08T04:27:41.088Z,83.84
2019-02-08T04:30:15.428Z,83.81
2019-02-08T04:32:42.869Z,83.85
2019-02-08T04:35:10.734Z,83.81
2019-02-08T04:37:38.609Z,83.66
2019-02-08T04:40:07.102Z,83.79
2019-02-08T04:42:34.301Z,83.66
2019-02-08T04:45:01.642Z,83.96
2019-02-08T04:47:29.182Z,83.75
2019-02-08T04:49:56.909Z,83.96
2019-02-08T04:52:25.159Z,83.69
2019-02-08T04:54:52.275Z,83.72
2019-02-08T04:57:20.198Z,83.71
2019-02-08T04:59:48.069Z,83.61
2019-02-08T05:02:15.642Z,83.59
2019-02-08T05:04:43.246Z,83.33
2019-02-08T05:07:11.253Z,83.29
2019-02-08T05:09:39.725Z,83.24
2019-02-08T05:12:07.291Z,83.33
2019-02-08T05:14:34.540Z,83.37
2019-02-08T05:17:02.430Z,83.26
2019-02-08T05:19:30.075Z,83.07
2019-02-08T05:21:57.808Z,83.26
2019-02-08T05:24:25.085Z,83.21
2019-02-08T05:26:52.271Z,82.87
2019-02-08T05:29:20.191Z,83.23
2019-02-08T05:31:47.285Z,83.07
2019-02-08T05:34:15.069Z,83.00
2019-02-08T05:36:42.912Z,82.96
2019-02-08T05:39:10.457Z,82.86
2019-02-08T05:41:37.836Z,82.99
2019-02-08T05:44:05.931Z,82.99
2019-02-08T05:46:33.373Z,82.73
2019-02-08T05:49:00.734Z,82.81
2019-02-08T05:51:29.021Z,82.74
2019-02-08T05:53:57.042Z,83.09
2019-02-08T05:56:26.019Z,82.66
2019-02-08T05:58:53.302Z,82.49
2019-02-08T06:01:21.685Z,82.92
2019-02-08T06:03:49.303Z,82.78
2019-02-08T06:06:16.550Z,82.83
2019-02-08T06:08:43.932Z,82.64
2019-02-08T06:11:11.646Z,82.56
2019-02-08T06:13:39.882Z,82.70
2019-02-08T06:16:07.624Z,82.89
2019-02-08T06:18:35.509Z,82.71
2019-02-08T06:21:03.595Z,82.86
2019-02-08T06:23:30.883Z,82.79
2019-02-08T06:25:58.455Z,82.76
2019-02-08T06:28:26.703Z,82.74
2019-02-08T06:30:54.483Z,82.62
2019-02-08T06:33:21.985Z,82.83
2019-02-08T06:35:49.485Z,83.08
2019-02-08T06:38:17.052Z,82.45
2019-02-08T06:40:46.644Z,82.62
2019-02-08T06:43:14.298Z,82.79
2019-02-08T06:45:42.191Z,82.75
2019-02-08T06:48:11.938Z,82.65
2019-02-08T06:50:39.402Z,82.49
2019-02-08T06:53:06.893Z,82.44
2019-02-08T06:55:35.019Z,82.42
2019-02-08T06:58:22.538Z,82.33
2019-02-08T07:01:12.323Z,82.58
2019-02-08T07:03:49.683Z,82.29
2019-02-08T07:06:34.107Z,82.34
2019-02-08T07:09:21.804Z,82.47
2019-02-08T07:12:07.501Z,82.25
2019-02-08T07:14:53.035Z,82.35
2019-02-08T07:17:31.961Z,82.41
2019-02-08T07:20:19.324Z,82.39
2019-02-08T07:23:12.654Z,82.32
2019-02-08T07:26:03.470Z,82.26
2019-02-08T07:28:45.879Z,82.27
2019-02-08T07:31:36.005Z,82.31
2019-02-08T07:34:22.255Z,82.17
2019-02-08T07:37:02.767Z,82.32
2019-02-08T07:39:53.278Z,82.24
2019-02-08T07:42:40.798Z,82.06
2019-02-08T07:45:23.535Z,82.04
2019-02-08T07:48:07.855Z,82.06
2019-02-08T07:51:02.431Z,82.15
2019-02-08T07:53:38.927Z,82.17
2019-02-08T07:56:20.963Z,81.93
2019-02-08T07:59:04.763Z,82.29
2019-02-08T08:01:55.254Z,81.76
2019-02-08T08:04:41.319Z,81.58
2019-02-08T08:07:29.586Z,81.92
2019-02-08T08:10:23.786Z,81.69
2019-02-08T08:13:29.587Z,81.84
2019-02-08T08:16:15.952Z,81.96
2019-02-08T08:18:50.536Z,81.31
2019-02-08T08:21:54.001Z,81.55
2019-02-08T08:24:48.005Z,81.80
2019-02-08T08:27:36.974Z,81.77
2019-02-08T08:30:19.857Z,81.78
2019-02-08T08:33:12.653Z,80.41
2019-02-08T08:37:10.752Z,81.39
2019-02-08T08:40:29.674Z,81.13
2019-02-08T08:43:32.698Z,81.09
2019-02-08T08:47:20.889Z,81.41
2019-02-08T08:50:20.214Z,80.63
2019-02-08T08:53:37.392Z,81.06
2019-02-08T08:57:08.758Z,80.99
2019-02-08T09:00:36.074Z,81.02
2019-02-08T09:03:55.191Z,79.06
2019-02-08T09:07:06.827Z,80.32
2019-02-08T09:10:37.219Z,79.39
2019-02-08T09:13:49.168Z,79.69
2019-02-08T09:17:17.803Z,78.79
2019-02-08T09:20:50.952Z,79.57
2019-02-08T09:24:18.581Z,79.57
2019-02-08T09:27:49.651Z,79.21
2019-02-08T09:30:50.402Z,78.51
2019-02-08T09:34:20.808Z,78.42
2019-02-08T09:37:48.224Z,78.59
2019-02-08T09:41:15.007Z,78.18
2019-02-08T09:44:32.774Z,78.47
2019-02-08T09:48:13.761Z,77.29
2019-02-08T09:51:53.698Z,77.13
2019-02-08T09:54:47.510Z,77.20
2019-02-08T09:57:58.536Z,77.83
2019-02-08T10:01:31.431Z,76.74
2019-02-08T10:05:09.297Z,77.28
2019-02-08T10:08:24.756Z,76.08
2019-02-08T10:11:58.373Z,76.10
2019-02-08T10:15:30.261Z,76.45
2019-02-08T10:19:10.754Z,76.31
2019-02-08T10:22:19.547Z,76.28
2019-02-08T10:25:43.217Z,75.25
2019-02-08T10:29:13.585Z,76.23
2019-02-08T10:32:36.844Z,74.17
2019-02-08T10:36:15.630Z,76.70
2019-02-08T10:39:34.093Z,75.33
2019-02-08T10:43:13.880Z,75.11
2019-02-08T10:47:17.961Z,75.47
2019-02-08T10:50:32.936Z,74.86
2019-02-08T10:54:19.901Z,73.98
2019-02-08T10:58:05.011Z,74.85
2019-02-08T11:01:45.139Z,74.22
2019-02-08T11:04:55.050Z,74.90
2019-02-08T11:08:37.355Z,72.14
2019-02-08T11:12:40.467Z,72.63
2019-02-08T11:16:21.100Z,73.56
2019-02-08T11:19:15.442Z,69.71
2019-02-08T11:21:43.995Z,69.62
2019-02-08T11:24:12.344Z,69.57
2019-02-08T11:26:40.550Z,69.16
2019-02-08T11:29:08.111Z,66.16
2019-02-08T11:31:35.736Z,63.58
2019-02-08T11:34:05.183Z,62.70
2019-02-08T11:36:33.006Z,65.62
2019-02-08T11:39:00.580Z,61.70
2019-02-08T11:41:28.697Z,64.30
2019-02-08T11:43:56.186Z,62.37
2019-02-08T11:46:23.933Z,63.89
2019-02-08T11:48:51.106Z,60.85
2019-02-08T11:51:18.499Z,61.44
2019-02-08T11:53:45.955Z,64.51
2019-02-08T11:56:14.212Z,62.49
2019-02-08T11:58:42.250Z,62.20
2019-02-08T12:01:10.162Z,66.07
2019-02-08T12:03:37.837Z,63.54
2019-02-08T12:06:05.762Z,64.83
2019-02-08T12:08:33.242Z,65.35
2019-02-08T12:11:00.738Z,62.93
2019-02-08T12:13:28.668Z,62.63
2019-02-08T12:15:56.027Z,63.77
2019-02-08T12:18:24.038Z,62.26
2019-02-08T12:20:51.818Z,60.22
2019-02-08T12:23:19.542Z,60.89
2019-02-08T12:25:46.965Z,61.85
2019-02-08T12:28:14.217Z,60.96
2019-02-08T12:30:43.403Z,61.76
2019-02-08T12:33:11.283Z,63.29
2019-02-08T12:35:39.370Z,62.39
2019-02-08T12:38:06.703Z,62.63
2019-02-08T12:40:34.746Z,60.95
2019-02-08T12:43:02.241Z,61.36
2019-02-08T12:45:30.090Z,61.85
2019-02-08T12:47:57.347Z,62.79
2019-02-08T12:50:24.973Z,63.72
2019-02-08T12:52:52.404Z,63.80
2019-02-08T12:55:19.894Z,63.69
2019-02-08T12:57:47.287Z,64.13
2019-02-08T13:00:18.198Z,62.71
2019-02-08T13:02:46.010Z,61.55
2019-02-08T13:05:15.326Z,62.57
2019-02-08T13:07:43.100Z,62.85
2019-02-08T13:10:14.511Z,62.07
2019-02-08T13:12:42.418Z,63.18
2019-02-08T13:15:11.264Z,62.18
2019-02-08T13:17:38.784Z,62.00
2019-02-08T13:20:10.483Z,61.48
2019-02-08T13:22:38.092Z,62.35
2019-02-08T13:25:06.811Z,62.56
2019-02-08T13:27:34.380Z,64.42
2019-02-08T13:30:02.643Z,63.65
2019-02-08T13:32:30.386Z,62.80
2019-02-08T13:34:58.950Z,62.83
2019-02-08T13:37:26.466Z,62.53
2019-02-08T13:39:53.986Z,62.84
2019-02-08T13:42:21.186Z,63.96
2019-02-08T13:44:49.482Z,63.78
2019-02-08T13:47:17.194Z,63.60
2019-02-08T13:49:45.097Z,63.69
2019-02-08T13:52:12.862Z,63.63
2019-02-08T13:54:40.373Z,62.11
2019-02-08T13:57:11.521Z,62.63
2019-02-08T13:59:39.703Z,62.25
2019-02-08T14:02:07.227Z,62.31
2019-02-08T14:04:34.395Z,62.96
2019-02-08T14:07:02.706Z,63.54
2019-02-08T14:09:30.202Z,63.15
2019-02-08T14:11:58.253Z,63.27
2019-02-08T14:14:25.644Z,63.60
2019-02-08T14:16:53.358Z,63.83
2019-02-08T14:19:20.617Z,65.10
2019-02-08T14:21:48.209Z,65.96
2019-02-08T14:24:16.260Z,64.76
2019-02-08T14:26:44.263Z,65.76
2019-02-08T14:29:11.738Z,66.79
2019-02-08T14:31:40.141Z,66.59
2019-02-08T14:34:07.887Z,67.33
2019-02-08T14:36:35.484Z,68.22
2019-02-08T14:39:07.236Z,68.46
2019-02-08T14:41:35.182Z,69.36
2019-02-08T14:44:02.971Z,69.95
2019-02-08T14:46:30.504Z,70.32
2019-02-08T14:48:57.908Z,70.42
2019-02-08T14:51:25.449Z,70.73
2019-02-08T14:53:53.236Z,70.98
2019-02-08T14:56:21.447Z,71.19
2019-02-08T14:58:48.717Z,70.96
2019-02-08T15:01:16.139Z,71.21
2019-02-08T15:03:44.140Z,71.19
2019-02-08T15:06:11.669Z,71.70
2019-02-08T15:08:39.287Z,72.26
2019-02-08T15:11:06.911Z,72.62
2019-02-08T15:13:34.645Z,72.82
2019-02-08T15:16:02.244Z,72.95
2019-02-08T15:18:30.212Z,73.08
2019-02-08T15:20:57.588Z,73.59
2019-02-08T15:23:24.862Z,74.16
2019-02-08T15:25:52.135Z,74.02
2019-02-08T15:28:19.782Z,74.58
2019-02-08T15:30:47.483Z,74.45
2019-02-08T15:33:16.194Z,74.10
2019-02-08T15:35:44.381Z,73.82
2019-02-08T15:38:12.149Z,74.24
2019-02-08T15:40:43.316Z,74.07
2019-02-08T15:43:11.983Z,73.84
2019-02-08T15:45:40.957Z,73.94
2019-02-08T15:48:08.808Z,73.72
2019-02-08T15:50:37.083Z,73.40
2019-02-08T15:53:04.566Z,73.22
2019-02-08T15:55:34.854Z,73.32
2019-02-08T15:58:02.926Z,72.95
2019-02-08T16:00:30.957Z,73.02
2019-02-08T16:02:58.898Z,72.88
2019-02-08T16:05:27.361Z,72.65
2019-02-08T16:07:55.279Z,72.63
2019-02-08T16:10:23.137Z,72.60
2019-02-08T16:12:50.869Z,72.20
2019-02-08T16:15:21.670Z,71.77
2019-02-08T16:17:50.471Z,72.00
2019-02-08T16:20:20.373Z,71.88
2019-02-08T16:22:50.932Z,72.01
2019-02-08T16:25:19.565Z,71.93
2019-02-08T16:27:47.402Z,71.88
2019-02-08T16:30:18.714Z,71.70
2019-02-08T16:32:46.598Z,71.50
2019-02-08T16:35:15.562Z,71.75
2019-02-08T16:37:43.242Z,71.48
2019-02-08T16:40:15.570Z,71.22
2019-02-08T16:42:43.168Z,70.90
2019-02-08T16:45:16.880Z,71.31
2019-02-08T16:47:44.779Z,71.21
2019-02-08T16:50:16.491Z,71.13
2019-02-08T16:52:44.509Z,71.21
2019-02-08T16:55:13.061Z,71.33
2019-02-08T16:57:47.641Z,71.28
2019-02-08T17:00:15.987Z,71.41
2019-02-08T17:02:45.161Z,71.68
2019-02-08T17:05:14.954Z,71.44
2019-02-08T17:07:42.990Z,71.63
2019-02-08T17:10:12.940Z,71.33
2019-02-08T17:12:40.731Z,71.73
2019-02-08T17:15:12.116Z,71.72
2019-02-08T17:17:39.624Z,71.48
2019-02-08T17:20:13.356Z,71.11
2019-02-08T17:22:41.472Z,71.00
2019-02-08T17:25:09.757Z,71.11
2019-02-08T17:27:37.481Z,71.18
2019-02-08T17:30:08.870Z,71.08
2019-02-08T17:32:36.528Z,70.92
2019-02-08T17:35:06.544Z,70.35
2019-02-08T17:37:33.791Z,70.29
2019-02-08T17:40:01.066Z,70.75
2019-02-08T17:42:28.715Z,70.78
2019-02-08T17:44:56.372Z,71.20
2019-02-08T17:47:24.445Z,71.08
2019-02-08T17:49:52.647Z,70.88
2019-02-08T17:52:22.010Z,70.90
2019-02-08T17:54:49.455Z,71.04
2019-02-08T17:57:17.372Z,71.10
2019-02-08T17:59:45.803Z,70.77
2019-02-08T18:02:14.145Z,71.48
2019-02-08T18:04:42.528Z,71.10
2019-02-08T18:07:10.009Z,70.93
2019-02-08T18:09:37.622Z,71.24
2019-02-08T18:12:05.373Z,71.17
2019-02-08T18:14:32.993Z,71.24
2019-02-08T18:17:01.408Z,71.37
2019-02-08T18:19:29.062Z,71.08
2019-02-08T18:21:56.360Z,71.55
2019-02-08T18:24:23.746Z,71.26
2019-02-08T18:26:51.239Z,71.30
2019-02-08T18:29:18.981Z,71.28
2019-02-08T18:31:46.630Z,71.18
2019-02-08T18:34:14.255Z,71.48
2019-02-08T18:36:42.161Z,71.27
2019-02-08T18:39:09.695Z,71.70
2019-02-08T18:41:37.300Z,71.19
2019-02-08T18:44:04.794Z,71.16
2019-02-08T18:46:32.401Z,71.25
2019-02-08T18:49:00.009Z,71.23
2019-02-08T18:51:27.428Z,71.15
2019-02-08T18:53:55.189Z,71.21
2019-02-08T18:56:22.670Z,70.89
2019-02-08T18:58:49.988Z,70.92
2019-02-08T19:01:17.757Z,70.69
2019-02-08T19:03:45.322Z,70.70
2019-02-08T19:06:12.438Z,70.56
2019-02-08T19:08:40.287Z,70.39
2019-02-08T19:11:07.948Z,70.58
2019-02-08T19:13:35.373Z,70.54
2019-02-08T19:16:03.177Z,69.79
2019-02-08T19:18:32.616Z,70.37
2019-02-08T19:21:00.062Z,70.30
2019-02-08T19:23:27.850Z,70.60
2019-02-08T19:25:55.460Z,70.06
2019-02-08T19:28:26.490Z,70.35
2019-02-08T19:30:53.156Z,69.58
2019-02-08T19:33:20.915Z,70.12
2019-02-08T19:35:49.034Z,69.70
2019-02-08T19:38:16.490Z,70.27
2019-02-08T19:40:44.903Z,69.59
2019-02-08T19:43:13.710Z,69.12
2019-02-08T19:45:41.304Z,68.95
2019-02-08T19:48:09.992Z,69.85
2019-02-08T19:50:40.459Z,69.03
2019-02-08T19:53:08.801Z,68.73
2019-02-08T19:55:36.757Z,69.56
2019-02-08T19:58:06.082Z,68.73
2019-02-08T20:00:34.313Z,69.42
2019-02-08T20:03:02.932Z,68.80
2019-02-08T20:05:30.436Z,68.55
2019-02-08T20:07:58.179Z,68.17
2019-02-08T20:10:31.410Z,68.27
2019-02-08T20:12:59.338Z,68.93
2019-02-08T20:15:27.413Z,68.66
2019-02-08T20:17:55.156Z,69.30
2019-02-08T20:20:23.169Z,68.19
2019-02-08T20:22:51.202Z,68.00
2019-02-08T20:25:21.874Z,67.99
2019-02-08T20:27:49.378Z,67.58
2019-02-08T20:30:19.766Z,67.77
2019-02-08T20:32:47.619Z,67.54
2019-02-08T20:35:17.686Z,67.17
2019-02-08T20:37:45.694Z,67.52
2019-02-08T20:40:19.541Z,67.83
2019-02-08T20:42:47.201Z,67.40
2019-02-08T20:45:23.671Z,66.75
2019-02-08T20:47:51.535Z,67.91
2019-02-08T20:50:21.285Z,68.30
2019-02-08T20:52:49.113Z,67.51
2019-02-08T20:55:17.778Z,66.61
2019-02-08T20:57:45.495Z,67.33
2019-02-08T21:00:29.739Z,66.54
2019-02-08T21:02:58.936Z,66.73
2019-02-08T21:05:28.038Z,67.42
2019-02-08T21:07:55.997Z,66.78
2019-02-08T21:10:23.528Z,66.71
2019-02-08T21:12:51.322Z,66.74
2019-02-08T21:15:19.183Z,67.49
2019-02-08T21:17:47.048Z,66.65
2019-02-08T21:20:15.105Z,67.08
2019-02-08T21:22:42.712Z,65.91
2019-02-08T21:25:13.278Z,67.38
2019-02-08T21:27:40.507Z,65.99
2019-02-08T21:30:11.477Z,66.22
2019-02-08T21:32:39.214Z,66.15
2019-02-08T21:35:08.263Z,67.32
2019-02-08T21:37:36.237Z,66.31
2019-02-08T21:40:07.061Z,66.24
2019-02-08T21:42:34.285Z,67.15
2019-02-08T21:45:02.106Z,66.34
2019-02-08T21:47:29.782Z,67.25
2019-02-08T21:49:57.748Z,65.98
2019-02-08T21:52:25.525Z,65.61
2019-02-08T21:54:52.889Z,66.27
2019-02-08T21:57:20.968Z,66.29
2019-02-08T21:59:48.832Z,65.47
2019-02-08T22:02:16.770Z,66.15
2019-02-08T22:04:44.130Z,65.73
2019-02-08T22:07:11.976Z,65.92
2019-02-08T22:09:39.646Z,65.23
2019-02-08T22:12:07.560Z,65.46
2019-02-08T22:14:35.042Z,66.90
2019-02-08T22:17:03.245Z,65.10
2019-02-08T22:19:31.203Z,64.96
2019-02-08T22:21:58.686Z,64.81
2019-02-08T22:24:26.443Z,64.64
2019-02-08T22:26:53.854Z,65.62
2019-02-08T22:29:21.021Z,66.02
2019-02-08T22:31:48.725Z,65.26
2019-02-08T22:34:16.027Z,65.69
2019-02-08T22:36:43.725Z,65.22
2019-02-08T22:39:11.429Z,65.26
2019-02-08T22:41:38.794Z,65.04
2019-02-08T22:44:06.045Z,65.44
2019-02-08T22:46:33.165Z,65.36
2019-02-08T22:49:01.184Z,64.54
2019-02-08T22:51:28.529Z,63.61
2019-02-08T22:53:57.358Z,64.59
2019-02-08T22:56:25.290Z,64.54
2019-02-08T22:58:53.642Z,65.82
2019-02-08T23:01:30.574Z,64.29
2019-02-08T23:04:00.168Z,64.86
2019-02-08T23:06:28.483Z,65.55
2019-02-08T23:08:57.298Z,64.00
2019-02-08T23:11:26.256Z,64.99
2019-02-08T23:13:54.201Z,65.09
2019-02-08T23:16:22.177Z,64.15
2019-02-08T23:18:49.808Z,64.38
2019-02-08T23:21:17.115Z,62.67
2019-02-08T23:23:44.586Z,63.26
2019-02-08T23:26:12.353Z,64.61
2019-02-08T23:28:39.942Z,63.91
2019-02-08T23:31:07.692Z,64.29
2019-02-08T23:33:35.126Z,63.15
2019-02-08T23:36:02.861Z,63.67
2019-02-08T23:38:30.552Z,63.58
2019-02-08T23:40:58.866Z,63.66
2019-02-08T23:43:26.548Z,63.47
2019-02-08T23:45:53.822Z,61.58
2019-02-08T23:48:21.065Z,62.57
2019-02-08T23:50:48.783Z,62.81
2019-02-08T23:53:16.186Z,63.62
2019-02-08T23:55:43.694Z,62.71
2019-02-08T23:58:11.688Z,63.13
